Time;durP1;ratioP1;P1;durP2;ratioP2;P2;SDS_P1;SDS_P2;PMS_P1;PMS_P2;Temp;Humidity;BMP_temperature;BMP_pressure;BME280_temperature;BME280_humidity;BME280_pressure;Samples;Min_cycle;Max_cycle;Signal;HPM_P1;HPM_P2
2024/01/28 00:00:28;;;;;;;14.70;6.22;;;153.70;2252.80;;;;;;4811949;29;20054;-76
2024/01/28 00:02:54;;;;;;;20.08;11.43;;;153.70;2252.80;;;;;;4811465;29;20027;-74
2024/01/28 00:05:20;;;;;;;11.52;4.47;;;153.60;2252.80;;;;;;4815128;29;20035;-78
2024/01/28 00:07:45;;;;;;;5.40;3.45;;;153.60;2252.80;;;;;;4817156;29;20018;-77
2024/01/28 00:10:11;;;;;;;10.70;3.72;;;153.60;2252.80;;;;;;4810749;29;20030;-77
2024/01/28 00:12:37;;;;;;;7.30;3.70;;;153.60;2252.80;;;;;;4812916;29;20055;-74
2024/01/28 00:15:03;;;;;;;9.50;4.05;;;153.60;2252.80;;;;;;4813229;29;20030;-75
2024/01/28 00:17:31;;;;;;;20.90;8.90;;;153.70;2252.80;;;;;;4822494;29;20094;-77
2024/01/28 00:19:57;;;;;;;10.10;6.70;;;153.70;2252.80;;;;;;4816097;29;20415;-75
2024/01/28 00:22:23;;;;;;;10.15;5.70;;;153.90;2252.80;;;;;;4815961;29;20102;-76
2024/01/28 00:24:50;;;;;;;11.00;5.50;;;153.90;2252.80;;;;;;4799377;29;20122;-78
2024/01/28 00:27:16;;;;;;;12.45;8.77;;;153.90;2252.80;;;;;;4817067;29;20425;-77
2024/01/28 00:29:41;;;;;;;13.75;7.57;;;154.00;2252.80;;;;;;4817415;29;20038;-74
2024/01/28 00:32:07;;;;;;;7.28;3.78;;;153.90;2252.80;;;;;;4828562;29;20034;-76
2024/01/28 00:34:33;;;;;;;8.85;6.32;;;154.00;2252.80;;;;;;4817642;29;20027;-76
2024/01/28 00:36:58;;;;;;;12.60;4.60;;;154.00;2252.80;;;;;;4820616;29;20069;-75
2024/01/28 00:39:24;;;;;;;7.32;4.05;;;154.00;2252.80;;;;;;4821647;29;20031;-76
2024/01/28 00:41:50;;;;;;;12.13;4.95;;;154.00;2252.80;;;;;;4822790;29;20067;-74
2024/01/28 00:44:16;;;;;;;7.47;4.10;;;154.00;2252.80;;;;;;4820788;29;20100;-75
2024/01/28 00:46:42;;;;;;;7.07;4.07;;;154.00;2252.80;;;;;;4821384;29;20031;-74
2024/01/28 00:49:07;;;;;;;12.50;8.43;;;154.00;2252.80;;;;;;4823129;29;20062;-76
2024/01/28 00:51:33;;;;;;;9.13;5.03;;;154.10;2252.80;;;;;;4817652;29;20027;-77
2024/01/28 00:53:59;;;;;;;8.95;5.32;;;154.10;2252.80;;;;;;4801303;29;20031;-78
2024/01/28 00:56:25;;;;;;;6.60;4.45;;;154.10;2252.80;;;;;;4802666;29;20063;-76
2024/01/28 00:58:51;;;;;;;10.20;3.67;;;154.10;2252.80;;;;;;4794001;29;20108;-77
2024/01/28 01:01:18;;;;;;;9.32;4.25;;;154.10;2252.80;;;;;;4806564;29;20088;-77
2024/01/28 01:03:44;;;;;;;8.02;4.20;;;154.10;2252.80;;;;;;4814975;29;20022;-77
2024/01/28 01:06:09;;;;;;;9.70;4.95;;;154.00;2252.80;;;;;;4821787;29;20059;-75
2024/01/28 01:08:35;;;;;;;15.23;8.27;;;154.10;2252.80;;;;;;4829378;29;20038;-77
2024/01/28 01:11:03;;;;;;;9.32;4.35;;;154.00;2252.80;;;;;;4829590;29;20039;-76
2024/01/28 01:13:33;;;;;;;9.32;5.68;;;154.00;2252.80;;;;;;4804433;29;20019;-78
2024/01/28 01:15:59;;;;;;;10.38;5.63;;;154.00;2252.80;;;;;;4816939;29;20054;-77
2024/01/28 01:18:25;;;;;;;7.28;3.60;;;154.00;2252.80;;;;;;4806979;29;20099;-77
2024/01/28 01:20:53;;;;;;;11.93;5.43;;;154.00;2252.80;;;;;;4803167;29;20038;-72
2024/01/28 01:23:19;;;;;;;9.55;3.97;;;154.00;2252.80;;;;;;4817313;29;20047;-77
2024/01/28 01:25:45;;;;;;;8.90;4.93;;;153.90;2252.80;;;;;;4799083;29;20038;-74
2024/01/28 01:28:10;;;;;;;14.30;9.27;;;154.00;2252.80;;;;;;4812547;29;20031;-78
2024/01/28 01:30:36;;;;;;;9.88;4.50;;;153.90;2252.80;;;;;;4813508;29;20092;-75
2024/01/28 01:33:02;;;;;;;10.80;5.28;;;154.00;2252.80;;;;;;4819732;29;20063;-77
2024/01/28 01:35:28;;;;;;;18.30;9.68;;;154.00;2252.80;;;;;;4818398;29;20031;-75
2024/01/28 01:37:54;;;;;;;15.15;4.95;;;154.00;2252.80;;;;;;4819016;29;20066;-75
2024/01/28 01:40:21;;;;;;;9.63;5.03;;;154.00;2252.80;;;;;;4817527;29;20038;-76
2024/01/28 01:42:47;;;;;;;14.25;5.45;;;154.00;2252.80;;;;;;4820165;29;20058;-77
2024/01/28 01:45:13;;;;;;;7.55;4.68;;;154.00;2252.80;;;;;;4817374;24;20101;-76
2024/01/28 01:47:42;;;;;;;10.88;5.55;;;154.00;2252.80;;;;;;4801588;29;20032;-78
2024/01/28 01:50:10;;;;;;;14.55;7.20;;;154.00;2252.80;;;;;;4800549;29;20060;-74
2024/01/28 01:52:42;;;;;;;14.05;5.75;;;154.00;2252.80;;;;;;4781480;30;20085;-77
2024/01/28 01:55:09;;;;;;;14.07;8.15;;;153.90;2252.80;;;;;;4798558;29;20031;-78
2024/01/28 01:57:37;;;;;;;15.77;5.45;;;154.00;2252.80;;;;;;4817522;29;20062;-77
2024/01/28 02:00:04;;;;;;;19.58;6.07;;;154.00;2252.80;;;;;;4804361;29;20030;-78
2024/01/28 02:02:31;;;;;;;10.48;6.53;;;154.40;2252.80;;;;;;4801090;29;20023;-78
2024/01/28 02:04:57;;;;;;;15.38;8.20;;;154.00;2252.80;;;;;;4800514;29;20037;-78
2024/01/28 02:07:24;;;;;;;16.73;7.90;;;154.00;2252.80;;;;;;4802845;30;20043;-80
2024/01/28 02:09:50;;;;;;;31.45;15.70;;;154.00;2252.80;;;;;;4800492;29;20031;-78
2024/01/28 02:12:16;;;;;;;14.70;7.15;;;154.00;2252.80;;;;;;4796278;29;20023;-76
2024/01/28 02:14:42;;;;;;;13.95;6.03;;;154.00;2252.80;;;;;;4796682;29;20035;-78
2024/01/28 02:17:08;;;;;;;13.18;6.78;;;153.90;2252.80;;;;;;4798638;29;20047;-77
2024/01/28 02:19:49;;;;;;;19.83;7.25;;;153.90;2252.80;;;;;;4798703;29;20059;-75
2024/01/28 02:22:14;;;;;;;10.52;7.05;;;153.90;2252.80;;;;;;4797782;29;20043;-74
2024/01/28 02:24:40;;;;;;;14.77;6.40;;;153.90;2252.80;;;;;;4782665;30;20020;-77
2024/01/28 02:27:06;;;;;;;17.98;8.10;;;153.90;2252.80;;;;;;4788661;24;20051;-78
2024/01/28 02:29:32;;;;;;;18.20;9.77;;;153.80;2252.80;;;;;;4782416;29;20059;-75
2024/01/28 02:31:57;;;;;;;12.27;5.93;;;153.70;2252.80;;;;;;4791808;29;20028;-73
2024/01/28 02:34:54;;;;;;;10.52;6.05;;;153.60;2252.80;;;;;;4801768;29;20038;-77
2024/01/28 02:37:21;;;;;;;15.38;7.10;;;128.90;2252.80;;;;;;4803328;29;20086;-79
2024/01/28 02:39:47;;;;;;;12.02;5.20;;;128.90;2252.80;;;;;;4781566;30;20039;-77
2024/01/28 02:42:13;;;;;;;14.63;7.32;;;128.90;2252.80;;;;;;4798309;30;20031;-77
2024/01/28 02:44:39;;;;;;;12.50;6.63;;;128.90;2252.80;;;;;;4795815;29;20106;-77
2024/01/28 02:47:04;;;;;;;11.05;5.97;;;128.90;2252.80;;;;;;4801945;29;20094;-75
2024/01/28 02:49:52;;;;;;;18.63;10.00;;;128.80;2252.80;;;;;;4809147;29;20015;-78
2024/01/28 02:52:18;;;;;;;18.85;8.48;;;128.70;2252.80;;;;;;4799955;29;20248;-76
2024/01/28 02:54:44;;;;;;;13.00;5.78;;;128.60;2252.80;;;;;;4798734;29;20084;-73
2024/01/28 02:57:09;;;;;;;11.38;6.22;;;128.70;2252.80;;;;;;4786321;29;20040;-78
2024/01/28 02:59:35;;;;;;;9.20;4.43;;;128.70;2252.80;;;;;;4784623;30;20036;-79
2024/01/28 03:02:01;;;;;;;9.65;4.03;;;128.50;2252.80;;;;;;4781767;30;20043;-77
2024/01/28 03:04:27;;;;;;;15.48;8.15;;;128.50;2252.80;;;;;;4779078;30;20024;-77
2024/01/28 03:06:52;;;;;;;9.25;4.25;;;128.40;2252.80;;;;;;4777721;30;20047;-79
2024/01/28 03:09:18;;;;;;;7.95;3.50;;;128.40;2252.80;;;;;;4782211;30;20070;-79
2024/01/28 03:11:44;;;;;;;7.15;3.33;;;128.40;2252.80;;;;;;4779410;30;20028;-77
2024/01/28 03:14:10;;;;;;;15.50;5.57;;;128.40;2252.80;;;;;;4779433;30;20056;-77
2024/01/28 03:16:36;;;;;;;11.65;5.85;;;128.30;2252.80;;;;;;4776282;30;20044;-77
2024/01/28 03:19:21;;;;;;;11.13;4.10;;;128.40;2252.80;;;;;;4760934;30;20043;-77
2024/01/28 03:21:47;;;;;;;13.25;4.50;;;128.30;2252.80;;;;;;4771321;30;20084;-77
2024/01/28 03:24:12;;;;;;;10.32;4.60;;;128.30;2252.80;;;;;;4779575;30;20106;-77
2024/01/28 03:26:39;;;;;;;10.20;9.15;;;128.30;2252.80;;;;;;4772958;30;20056;-79
2024/01/28 03:29:04;;;;;;;8.85;5.70;;;128.20;2252.80;;;;;;4757079;30;20565;-73
2024/01/28 03:31:30;;;;;;;10.50;5.07;;;128.30;2252.80;;;;;;4772929;30;20028;-76
2024/01/28 03:33:57;;;;;;;14.15;5.90;;;128.20;2252.80;;;;;;4770205;30;20505;-76
2024/01/28 03:36:23;;;;;;;7.03;3.28;;;128.30;2252.80;;;;;;4775512;30;20040;-78
2024/01/28 03:38:49;;;;;;;10.52;3.95;;;128.20;2252.80;;;;;;4771075;30;20058;-77
2024/01/28 03:41:15;;;;;;;7.00;4.03;;;128.20;2252.80;;;;;;4773051;30;20129;-74
2024/01/28 03:43:46;;;;;;;10.05;4.10;;;128.10;2252.80;;;;;;4772810;30;20056;-77
2024/01/28 03:46:12;;;;;;;8.23;4.13;;;128.10;2252.80;;;;;;4772375;30;20031;-78
2024/01/28 03:48:38;;;;;;;9.02;5.00;;;128.10;2252.80;;;;;;4772495;30;20039;-77
2024/01/28 03:51:05;;;;;;;11.88;7.45;;;128.10;2252.80;;;;;;4773572;30;20031;-78
2024/01/28 03:53:32;;;;;;;8.05;3.85;;;128.10;2252.80;;;;;;4792595;24;20055;-78
2024/01/28 03:55:58;;;;;;;19.88;5.22;;;128.10;2252.80;;;;;;4792449;30;20035;-77
2024/01/28 03:58:24;;;;;;;13.15;5.72;;;128.30;2252.80;;;;;;4793409;29;20034;-77
2024/01/28 04:00:49;;;;;;;7.53;4.20;;;128.40;2252.80;;;;;;4792502;29;20023;-78
2024/01/28 04:03:15;;;;;;;13.05;6.10;;;128.50;2252.80;;;;;;4791280;29;20573;-75
2024/01/28 04:05:42;;;;;;;13.25;4.88;;;128.40;2252.80;;;;;;4801763;29;20031;-79
2024/01/28 04:08:11;;;;;;;10.60;5.90;;;128.50;2252.80;;;;;;4796619;29;20123;-78
2024/01/28 04:10:37;;;;;;;13.52;6.30;;;128.60;2252.80;;;;;;4787235;30;20024;-75
2024/01/28 04:13:03;;;;;;;11.32;4.35;;;128.70;2252.80;;;;;;4792458;29;20501;-78
2024/01/28 04:15:29;;;;;;;13.15;7.15;;;128.70;2252.80;;;;;;4786428;29;20036;-78
2024/01/28 04:17:55;;;;;;;8.48;4.18;;;128.70;2252.80;;;;;;4791137;29;20023;-77
2024/01/28 04:20:21;;;;;;;9.55;4.90;;;128.70;2252.80;;;;;;4783756;29;20051;-73
2024/01/28 04:22:47;;;;;;;18.75;7.97;;;128.80;2252.80;;;;;;4788587;29;20028;-78
2024/01/28 04:25:13;;;;;;;8.93;5.28;;;128.70;2252.80;;;;;;4793905;29;20067;-78
2024/01/28 04:27:39;;;;;;;14.95;5.15;;;128.60;2252.80;;;;;;4794120;29;20110;-77
2024/01/28 04:30:06;;;;;;;8.38;5.93;;;128.70;2252.80;;;;;;4793595;29;20024;-77
2024/01/28 04:32:32;;;;;;;11.75;5.82;;;128.60;2252.80;;;;;;4793628;29;20031;-78
2024/01/28 04:34:57;;;;;;;9.77;4.82;;;128.60;2252.80;;;;;;4792938;29;20087;-78
2024/01/28 04:37:26;;;;;;;13.07;4.50;;;128.50;2252.80;;;;;;4797964;29;20043;-78
2024/01/28 04:39:52;;;;;;;8.57;4.18;;;128.50;2252.80;;;;;;4795495;30;20029;-78
2024/01/28 04:42:22;;;;;;;9.70;4.40;;;128.40;2252.80;;;;;;4789473;29;20035;-77
2024/01/28 04:44:51;;;;;;;8.43;4.28;;;128.40;2252.80;;;;;;4796256;29;20019;-78
2024/01/28 04:47:17;;;;;;;8.55;4.65;;;128.30;2252.80;;;;;;4795580;29;20036;-77
2024/01/28 04:49:43;;;;;;;11.23;4.95;;;128.20;2252.80;;;;;;4789800;29;20035;-77
2024/01/28 04:52:09;;;;;;;7.72;4.05;;;128.00;2252.80;;;;;;4792875;29;20497;-77
2024/01/28 04:54:35;;;;;;;8.50;4.85;;;103.30;2227.20;;;;;;4794935;29;20504;-78
2024/01/28 04:57:01;;;;;;;13.20;5.47;;;103.20;2227.20;;;;;;4794794;30;20451;-77
2024/01/28 04:59:28;;;;;;;10.23;5.13;;;103.20;2227.20;;;;;;4794488;29;20033;-78
2024/01/28 05:01:54;;;;;;;9.30;3.75;;;103.20;2227.20;;;;;;4796151;29;20023;-78
2024/01/28 05:04:21;;;;;;;9.32;3.97;;;103.20;2227.20;;;;;;4795731;29;20039;-78
2024/01/28 05:06:46;;;;;;;9.60;4.57;;;103.10;2227.20;;;;;;4796144;29;20031;-78
2024/01/28 05:09:12;;;;;;;11.85;4.78;;;103.10;2227.20;;;;;;4801180;24;20092;-78
2024/01/28 05:11:38;;;;;;;13.40;4.03;;;103.00;2227.20;;;;;;4795030;29;20427;-77
2024/01/28 05:14:04;;;;;;;10.75;4.88;;;103.00;2227.20;;;;;;4795747;30;20248;-78
2024/01/28 05:16:30;;;;;;;12.68;5.72;;;103.10;2227.20;;;;;;4795636;29;20051;-77
2024/01/28 05:18:56;;;;;;;10.88;4.88;;;103.00;2227.20;;;;;;4794860;30;20023;-77
2024/01/28 05:21:25;;;;;;;12.02;8.18;;;102.90;2227.20;;;;;;4797878;29;20028;-77
2024/01/28 05:23:51;;;;;;;12.43;8.77;;;103.00;2227.20;;;;;;4803420;29;20031;-76
2024/01/28 05:26:17;;;;;;;14.25;4.93;;;102.90;2227.20;;;;;;4802019;30;20023;-76
2024/01/28 05:28:44;;;;;;;8.55;4.05;;;102.90;2227.20;;;;;;4788705;30;20039;-76
2024/01/28 05:31:11;;;;;;;10.60;4.35;;;102.90;2227.20;;;;;;4792684;29;20031;-77
2024/01/28 05:33:37;;;;;;;8.32;4.28;;;102.90;2227.20;;;;;;4815837;29;20026;-75
2024/01/28 05:36:23;;;;;;;7.50;4.18;;;102.80;2227.20;;;;;;4809783;29;20035;-78
2024/01/28 05:38:49;;;;;;;10.23;4.45;;;102.80;2227.20;;;;;;4800482;29;20024;-75
2024/01/28 05:41:15;;;;;;;9.48;4.90;;;102.80;2227.20;;;;;;4795261;29;20039;-74
2024/01/28 05:43:40;;;;;;;7.80;4.90;;;102.70;2227.20;;;;;;4792935;29;20042;-77
2024/01/28 05:46:06;;;;;;;11.18;6.40;;;102.80;2227.20;;;;;;4793334;30;20063;-75
2024/01/28 05:48:33;;;;;;;8.05;4.55;;;102.80;2227.20;;;;;;4796438;29;20061;-75
2024/01/28 05:50:59;;;;;;;11.02;7.22;;;102.70;2227.20;;;;;;4805555;29;20039;-76
2024/01/28 05:53:25;;;;;;;10.20;4.45;;;102.80;2227.20;;;;;;4796894;29;20031;-77
2024/01/28 05:55:52;;;;;;;12.07;4.38;;;102.80;2227.20;;;;;;4812488;29;20504;-74
2024/01/28 05:58:19;;;;;;;10.38;4.22;;;102.80;2227.20;;;;;;4799065;29;20467;-77
2024/01/28 06:00:46;;;;;;;11.30;5.38;;;102.90;2227.20;;;;;;4794968;29;20080;-77
2024/01/28 06:03:12;;;;;;;9.93;4.35;;;102.90;2227.20;;;;;;4793639;29;20043;-74
2024/01/28 06:05:38;;;;;;;14.32;5.38;;;102.80;2227.20;;;;;;4793564;29;20027;-77
2024/01/28 06:08:04;;;;;;;17.02;6.28;;;102.90;2227.20;;;;;;4792254;29;20039;-76
2024/01/28 06:10:30;;;;;;;10.02;5.75;;;102.90;2227.20;;;;;;4791020;29;20069;-73
2024/01/28 06:12:56;;;;;;;12.38;4.60;;;103.00;2227.20;;;;;;4775533;29;20067;-76
2024/01/28 06:15:22;;;;;;;12.75;4.93;;;103.00;2227.20;;;;;;4774882;30;20035;-78
2024/01/28 06:17:48;;;;;;;14.60;5.50;;;103.10;2227.20;;;;;;4792312;29;20054;-78
2024/01/28 06:20:13;;;;;;;8.95;5.20;;;103.10;2227.20;;;;;;4793786;29;20028;-75
2024/01/28 06:22:39;;;;;;;10.70;5.45;;;103.10;2227.20;;;;;;4797069;29;20028;-78
2024/01/28 06:25:07;;;;;;;10.90;4.63;;;103.20;2227.20;;;;;;4793876;29;20501;-73
2024/01/28 06:27:33;;;;;;;7.57;3.80;;;103.20;2227.20;;;;;;4793355;29;20039;-77
2024/01/28 06:29:59;;;;;;;16.45;5.35;;;103.30;2227.20;;;;;;4791297;29;20047;-75
2024/01/28 06:32:25;;;;;;;15.65;6.85;;;103.20;2227.20;;;;;;4796121;29;20506;-76
2024/01/28 06:34:52;;;;;;;14.25;7.85;;;103.30;2227.20;;;;;;4795358;29;20080;-77
2024/01/28 06:37:24;;;;;;;24.92;10.88;;;103.30;2227.20;;;;;;4793660;29;20039;-76
2024/01/28 06:39:51;;;;;;;199.60;122.87;;;128.00;2252.80;;;;;;4776023;30;20031;-75
2024/01/28 06:42:18;;;;;;;41.60;25.60;;;128.00;2252.80;;;;;;4794072;29;20283;-75
2024/01/28 06:44:44;;;;;;;24.38;13.43;;;128.10;2252.80;;;;;;4792631;29;20110;-74
2024/01/28 06:47:10;;;;;;;10.98;6.60;;;128.10;2252.80;;;;;;4790493;29;20067;-75
2024/01/28 06:49:36;;;;;;;26.23;22.17;;;128.00;2252.80;;;;;;4787011;30;20435;-76
2024/01/28 06:52:01;;;;;;;16.35;12.23;;;128.20;2252.80;;;;;;4787039;30;20047;-76
2024/01/28 06:54:27;;;;;;;12.73;5.00;;;128.10;2252.80;;;;;;4778019;29;20036;-76
2024/01/28 06:56:53;;;;;;;13.95;10.57;;;128.30;2252.80;;;;;;4793675;30;20039;-76
2024/01/28 06:59:19;;;;;;;13.27;8.00;;;128.30;2252.80;;;;;;4803488;29;20031;-75
2024/01/28 07:01:45;;;;;;;17.30;6.45;;;128.40;2252.80;;;;;;4791708;29;20031;-77
2024/01/28 07:04:11;;;;;;;12.70;5.85;;;128.50;2252.80;;;;;;4790908;29;20283;-76
2024/01/28 07:06:36;;;;;;;15.82;5.70;;;128.50;2252.80;;;;;;4793041;29;20050;-75
2024/01/28 07:09:02;;;;;;;11.25;5.15;;;128.60;2252.80;;;;;;4791415;29;20391;-73
2024/01/28 07:11:28;;;;;;;18.40;8.52;;;128.80;2252.80;;;;;;4793347;29;20055;-77
2024/01/28 07:13:54;;;;;;;14.73;7.15;;;153.60;2252.80;;;;;;4793896;29;20033;-77
2024/01/28 07:16:20;;;;;;;56.65;28.58;;;153.60;2252.80;;;;;;4795319;29;20047;-76
2024/01/28 07:18:46;;;;;;;121.55;57.67;;;153.60;2252.80;;;;;;4796027;29;20079;-77
2024/01/28 07:21:12;;;;;;;71.20;35.10;;;153.70;2252.80;;;;;;4792438;29;20035;-76
2024/01/28 07:23:40;;;;;;;65.97;33.35;;;153.70;2252.80;;;;;;4793459;29;20035;-74
2024/01/28 07:26:08;;;;;;;296.58;173.10;;;153.80;2252.80;;;;;;4793123;29;20038;-75
2024/01/28 07:28:34;;;;;;;34.33;17.75;;;153.90;2252.80;;;;;;4793241;29;20084;-74
2024/01/28 07:31:00;;;;;;;199.85;97.03;;;154.10;2252.80;;;;;;4792526;29;20058;-74
2024/01/28 07:33:25;;;;;;;18.58;10.00;;;154.20;2252.80;;;;;;4789717;29;20834;-75
2024/01/28 07:35:51;;;;;;;18.92;11.60;;;154.10;2252.80;;;;;;4767789;30;20668;-76
2024/01/28 07:38:17;;;;;;;66.03;43.33;;;154.20;2252.80;;;;;;4794273;29;20122;-76
2024/01/28 07:40:42;;;;;;;18.52;7.63;;;154.50;2252.80;;;;;;4795883;30;20808;-75
2024/01/28 07:43:08;;;;;;;13.45;8.30;;;154.50;2252.80;;;;;;4795746;29;20039;-77
2024/01/28 07:45:37;;;;;;;18.83;8.88;;;154.40;2252.80;;;;;;4795225;29;20212;-75
2024/01/28 07:48:03;;;;;;;12.88;7.93;;;154.30;2252.80;;;;;;4796361;29;20402;-76
2024/01/28 07:50:29;;;;;;;12.57;7.28;;;154.40;2252.80;;;;;;4789543;29;20031;-75
2024/01/28 07:52:55;;;;;;;17.10;6.60;;;154.50;2252.80;;;;;;4792701;29;20019;-76
2024/01/28 07:55:21;;;;;;;18.15;6.55;;;154.50;2252.80;;;;;;4793793;29;20031;-75
2024/01/28 07:57:48;;;;;;;31.15;15.98;;;154.40;2252.80;;;;;;4791109;29;20040;-77
2024/01/28 08:00:14;;;;;;;27.75;12.88;;;179.20;2252.80;;;;;;4790438;29;20027;-76
2024/01/28 08:02:40;;;;;;;18.13;7.85;;;179.40;2252.80;;;;;;4791569;29;20039;-74
2024/01/28 08:05:06;;;;;;;25.58;13.65;;;179.30;2252.80;;;;;;4792069;30;20031;-76
2024/01/28 08:07:32;;;;;;;34.65;17.95;;;179.30;2252.80;;;;;;4792056;29;20027;-76
2024/01/28 08:09:58;;;;;;;25.52;15.48;;;179.40;2252.80;;;;;;4789292;29;20116;-76
2024/01/28 08:12:23;;;;;;;25.38;16.30;;;179.30;2252.80;;;;;;4788448;29;20031;-73
2024/01/28 08:14:49;;;;;;;20.17;12.55;;;179.40;2252.80;;;;;;4772643;30;20043;-74
2024/01/28 08:17:15;;;;;;;26.30;14.65;;;179.50;2252.80;;;;;;4776363;30;20197;-76
2024/01/28 08:19:42;;;;;;;16.05;8.23;;;179.50;2252.80;;;;;;4798612;29;20074;-74
2024/01/28 08:22:08;;;;;;;16.60;7.88;;;179.50;2252.80;;;;;;4795380;29;20066;-73
2024/01/28 08:24:33;;;;;;;19.52;7.88;;;179.60;2252.80;;;;;;4778645;30;20019;-74
2024/01/28 08:26:59;;;;;;;12.25;6.85;;;179.90;2252.80;;;;;;4795762;29;20120;-75
2024/01/28 08:29:25;;;;;;;14.27;7.60;;;179.90;2252.80;;;;;;4793785;29;20102;-74
2024/01/28 08:31:51;;;;;;;16.88;9.65;;;180.10;2252.80;;;;;;4789892;29;20495;-74
2024/01/28 08:34:20;;;;;;;14.25;7.35;;;205.20;2252.80;;;;;;4791428;29;20042;-76
2024/01/28 08:36:46;;;;;;;31.88;16.63;;;230.70;2252.80;;;;;;4780497;30;20039;-76
2024/01/28 08:39:14;;;;;;;22.77;11.55;;;231.30;2252.80;;;;;;4796845;29;20036;-77
2024/01/28 08:41:40;;;;;;;11.05;6.70;;;231.30;2252.80;;;;;;4768539;30;20039;-77
2024/01/28 08:44:06;;;;;;;69.50;44.80;;;256.40;2252.80;;;;;;4758843;29;20556;-76
2024/01/28 08:46:32;;;;;;;12.55;7.03;;;256.90;2252.80;;;;;;4774063;30;20069;-78
2024/01/28 08:48:58;;;;;;;24.27;13.20;;;282.30;2227.20;;;;;;4786817;29;20043;-77
2024/01/28 08:51:24;;;;;;;21.13;13.70;;;307.80;2150.40;;;;;;4784621;29;20111;-76
2024/01/28 08:53:50;;;;;;;16.33;11.10;;;333.60;2073.60;;;;;;4783985;29;20039;-79
2024/01/28 08:56:16;;;;;;;25.17;9.55;;;333.30;2048.00;;;;;;4768543;30;20096;-78
2024/01/28 08:58:41;;;;;;;20.85;11.20;;;282.50;2099.20;;;;;;4774738;30;20044;-77
2024/01/28 09:01:08;;;;;;;21.05;11.18;;;256.60;2176.00;;;;;;4797092;29;20110;-76
2024/01/28 09:03:35;;;;;;;20.10;8.05;;;256.00;2227.20;;;;;;4794034;29;20027;-76
2024/01/28 09:06:02;;;;;;;24.67;15.13;;;231.10;2252.80;;;;;;4793567;29;20030;-77
2024/01/28 09:08:30;;;;;;;15.45;7.57;;;230.70;2252.80;;;;;;4793841;29;20031;-78
2024/01/28 09:10:56;;;;;;;15.70;9.18;;;230.50;2252.80;;;;;;4796610;29;20138;-76
2024/01/28 09:13:23;;;;;;;16.58;10.52;;;205.70;2252.80;;;;;;4796464;29;20035;-76
2024/01/28 09:15:49;;;;;;;18.10;12.13;;;230.50;2252.80;;;;;;4795681;29;20031;-77
2024/01/28 09:18:21;;;;;;;18.00;8.88;;;205.60;2252.80;;;;;;4794514;29;20541;-76
2024/01/28 09:20:47;;;;;;;21.83;9.07;;;205.60;2252.80;;;;;;4795830;29;20031;-77
2024/01/28 09:23:13;;;;;;;12.50;6.68;;;205.70;2252.80;;;;;;4794717;29;20043;-78
2024/01/28 09:25:39;;;;;;;18.92;10.20;;;230.60;2252.80;;;;;;4793560;30;20046;-76
2024/01/28 09:28:07;;;;;;;22.88;11.88;;;230.90;2252.80;;;;;;4794099;29;20043;-77
2024/01/28 09:30:33;;;;;;;23.13;12.40;;;231.10;2252.80;;;;;;4779534;30;20487;-77
2024/01/28 09:32:59;;;;;;;14.02;9.13;;;230.90;2252.80;;;;;;4794952;29;20544;-77
2024/01/28 09:35:25;;;;;;;20.55;13.07;;;230.80;2252.80;;;;;;4764528;30;20067;-76
2024/01/28 09:37:52;;;;;;;15.25;9.95;;;230.60;2252.80;;;;;;4776903;29;20494;-76
2024/01/28 09:40:18;;;;;;;19.05;10.65;;;230.40;2252.80;;;;;;4786485;30;20031;-76
2024/01/28 09:43:27;;;;;;;18.67;8.80;;;205.40;2252.80;;;;;;4780756;30;20035;-75
2024/01/28 09:45:53;;;;;;;17.33;9.95;;;205.40;2252.80;;;;;;4789856;29;20019;-76
2024/01/28 09:48:20;;;;;;;18.63;9.50;;;205.10;2252.80;;;;;;4791776;30;20027;-77
2024/01/28 09:50:46;;;;;;;24.48;9.02;;;204.80;2252.80;;;;;;4797334;29;20034;-76
2024/01/28 09:53:19;;;;;;;19.67;9.85;;;180.10;2252.80;;;;;;4797028;29;20062;-76
2024/01/28 09:55:44;;;;;;;15.40;8.35;;;179.90;2252.80;;;;;;4799207;30;20034;-76
2024/01/28 09:58:10;;;;;;;23.38;10.75;;;180.10;2252.80;;;;;;4795263;29;20035;-77
2024/01/28 10:00:38;;;;;;;34.72;18.75;;;204.80;2252.80;;;;;;4781148;30;20040;-75
2024/01/28 10:03:04;;;;;;;23.90;12.95;;;205.00;2252.80;;;;;;4779313;30;20045;-75
2024/01/28 10:05:31;;;;;;;16.42;9.48;;;205.70;2252.80;;;;;;4790379;30;20079;-75
2024/01/28 10:08:03;;;;;;;22.58;14.82;;;205.20;2252.80;;;;;;4798047;29;20057;-76
2024/01/28 10:10:29;;;;;;;35.85;21.20;;;205.50;2252.80;;;;;;4810962;29;20047;-78
2024/01/28 10:12:57;;;;;;;50.90;32.17;;;205.60;2252.80;;;;;;4797354;29;20544;-76
2024/01/28 10:15:26;;;;;;;18.75;11.15;;;205.50;2252.80;;;;;;4787848;30;20114;-76
2024/01/28 10:17:52;;;;;;;16.27;7.88;;;205.60;2252.80;;;;;;4782108;30;20529;-77
2024/01/28 10:20:20;;;;;;;23.98;12.10;;;205.70;2252.80;;;;;;4771788;30;20039;-74
2024/01/28 10:22:46;;;;;;;22.88;11.60;;;230.50;2252.80;;;;;;4789019;30;20092;-75
2024/01/28 10:25:16;;;;;;;27.65;14.68;;;230.40;2252.80;;;;;;4761585;30;20169;-77
2024/01/28 10:27:43;;;;;;;36.28;22.30;;;230.60;2252.80;;;;;;4789355;30;20364;-75
2024/01/28 10:30:11;;;;;;;28.42;15.15;;;230.40;2252.80;;;;;;4794878;29;20051;-76
2024/01/28 10:32:38;;;;;;;21.05;10.98;;;230.40;2252.80;;;;;;4774262;30;20044;-76
2024/01/28 10:35:09;;;;;;;14.93;7.78;;;205.70;2252.80;;;;;;4782539;29;20031;-76
2024/01/28 10:37:35;;;;;;;35.70;18.48;;;205.70;2252.80;;;;;;4787975;29;20035;-77
2024/01/28 10:40:07;;;;;;;38.17;21.85;;;230.50;2252.80;;;;;;4773926;30;20043;-77
2024/01/28 10:42:41;;;;;;;19.48;9.85;;;230.60;2252.80;;;;;;4795553;29;20042;-76
2024/01/28 10:45:09;;;;;;;26.42;12.98;;;230.80;2252.80;;;;;;4793365;29;20027;-76
2024/01/28 10:47:36;;;;;;;31.17;16.10;;;230.70;2252.80;;;;;;4777574;30;20043;-78
2024/01/28 10:50:10;;;;;;;154.63;85.72;;;230.60;2252.80;;;;;;4794094;29;20050;-78
2024/01/28 10:52:39;;;;;;;41.72;23.13;;;230.80;2252.80;;;;;;4794549;29;20012;-77
2024/01/28 10:55:06;;;;;;;34.00;17.73;;;230.70;2252.80;;;;;;4779071;29;20031;-77
2024/01/28 10:57:33;;;;;;;22.00;13.63;;;230.70;2252.80;;;;;;4790518;29;20054;-77
2024/01/28 11:00:00;;;;;;;33.03;20.48;;;230.90;2252.80;;;;;;4789000;30;20502;-77
2024/01/28 11:02:27;;;;;;;37.28;20.60;;;230.90;2252.80;;;;;;4788244;29;20029;-76
2024/01/28 11:04:55;;;;;;;23.83;14.65;;;230.90;2252.80;;;;;;4771899;29;20031;-76
2024/01/28 11:07:21;;;;;;;19.00;10.02;;;230.90;2252.80;;;;;;4788144;30;20039;-77
2024/01/28 11:09:48;;;;;;;12.35;7.40;;;231.20;2252.80;;;;;;4769451;30;20064;-77
2024/01/28 11:12:15;;;;;;;29.40;12.20;;;231.00;2252.80;;;;;;4783784;30;20035;-77
2024/01/28 11:14:40;;;;;;;21.83;11.55;;;231.10;2252.80;;;;;;4777621;29;20501;-76
2024/01/28 11:17:10;;;;;;;18.83;10.32;;;231.10;2252.80;;;;;;4795648;29;20129;-76
2024/01/28 11:19:36;;;;;;;10.80;6.70;;;231.00;2252.80;;;;;;4793172;29;20060;-76
2024/01/28 11:22:02;;;;;;;66.43;35.85;;;231.10;2252.80;;;;;;4796542;29;20040;-77
2024/01/28 11:24:28;;;;;;;35.20;17.67;;;256.10;2252.80;;;;;;4786308;29;20038;-77
2024/01/28 11:26:58;;;;;;;36.58;19.92;;;231.30;2252.80;;;;;;4785486;29;20031;-76
2024/01/28 11:29:32;;;;;;;14.50;7.55;;;256.10;2252.80;;;;;;4785558;29;20080;-77
2024/01/28 11:32:02;;;;;;;12.65;6.75;;;256.00;2252.80;;;;;;4782224;29;20058;-78
2024/01/28 11:34:28;;;;;;;12.48;6.32;;;231.10;2252.80;;;;;;4776227;30;20042;-77
2024/01/28 11:37:00;;;;;;;9.20;6.00;;;231.00;2252.80;;;;;;4785730;29;20040;-78
2024/01/28 11:39:34;;;;;;;22.92;12.98;;;230.90;2252.80;;;;;;4784527;29;20081;-77
2024/01/28 11:42:02;;;;;;;16.52;9.80;;;230.70;2252.80;;;;;;4782367;30;20479;-79
2024/01/28 11:44:29;;;;;;;44.17;30.30;;;230.80;2252.80;;;;;;4778132;29;20154;-78
2024/01/28 11:46:56;;;;;;;18.83;11.05;;;230.90;2252.80;;;;;;4782282;30;20058;-78
2024/01/28 11:49:21;;;;;;;94.65;53.42;;;230.90;2252.80;;;;;;4774002;30;20031;-77
2024/01/28 11:51:47;;;;;;;18.05;8.90;;;230.80;2252.80;;;;;;4777818;30;20391;-77
2024/01/28 11:54:13;;;;;;;18.38;12.32;;;230.60;2252.80;;;;;;4781155;29;20074;-78
2024/01/28 11:56:39;;;;;;;20.05;12.10;;;230.70;2252.80;;;;;;4774410;29;20047;-77
2024/01/28 11:59:06;;;;;;;26.90;13.05;;;230.90;2252.80;;;;;;4769847;30;20031;-78
2024/01/28 12:01:32;;;;;;;18.02;7.10;;;231.00;2252.80;;;;;;4768949;30;20490;-77
2024/01/28 12:03:58;;;;;;;11.77;6.70;;;230.80;2252.80;;;;;;4770405;30;20032;-77